Time;durP1;ratioP1;P1;durP2;ratioP2;P2;SDS_P1;SDS_P2;PMS_P1;PMS_P2;Temp;Humidity;BMP_temperature;BMP_pressure;BME280_temperature;BME280_humidity;BME280_pressure;Samples;Min_cycle;Max_cycle;Signal;HPM_P1;HPM_P2
2020/12/19 00:01:04;;;;;;;12.95;11.27;;;;;;;11.87;63.90;101330.94;5068922;28;20616;-82
2020/12/19 00:03:29;;;;;;;11.70;10.50;;;;;;;11.78;63.86;101324.75;5076372;28;20044;-82
2020/12/19 00:05:55;;;;;;;13.18;11.95;;;;;;;11.85;63.72;101319.38;5066506;28;20071;-83
2020/12/19 00:08:20;;;;;;;15.13;13.23;;;;;;;11.67;64.33;101317.94;5031197;28;20032;-84
2020/12/19 00:10:45;;;;;;;14.27;11.48;;;;;;;11.61;64.79;101313.25;5065614;28;20071;-83
2020/12/19 00:13:11;;;;;;;16.55;10.68;;;;;;;11.67;64.48;101307.03;5071261;28;20032;-81
2020/12/19 00:15:36;;;;;;;12.65;11.35;;;;;;;11.71;64.31;101305.63;5070604;28;20394;-83
2020/12/19 00:18:02;;;;;;;13.43;12.02;;;;;;;11.53;65.08;101311.47;5070047;28;20655;-83
2020/12/19 00:20:28;;;;;;;16.05;14.05;;;;;;;11.45;65.46;101306.16;5054032;28;20078;-83
2020/12/19 00:22:54;;;;;;;16.55;14.82;;;;;;;11.45;65.21;101297.97;5069334;28;20829;-83
2020/12/19 00:25:19;;;;;;;18.60;14.27;;;;;;;11.49;65.04;101296.53;5054653;28;20032;-83
2020/12/19 00:27:45;;;;;;;16.20;14.50;;;;;;;11.42;65.22;101282.03;5067567;28;20028;-83
2020/12/19 00:30:10;;;;;;;15.43;13.82;;;;;;;11.45;65.03;101287.09;5043970;28;20050;-82
2020/12/19 00:32:40;;;;;;;18.33;16.35;;;;;;;11.39;65.46;101296.84;5050965;28;20112;-82
2020/12/19 00:35:07;;;;;;;17.35;15.57;;;;;;;11.53;64.90;101297.84;5071244;28;20031;-82
2020/12/19 00:37:32;;;;;;;19.65;17.15;;;;;;;11.35;65.67;101292.81;5052227;28;20032;-82
2020/12/19 00:39:57;;;;;;;20.73;18.60;;;;;;;11.29;65.75;101296.28;5074311;28;20376;-84
2020/12/19 00:42:23;;;;;;;20.02;18.13;;;;;;;11.43;65.35;101289.13;5044415;28;20047;-83
2020/12/19 00:45:04;;;;;;;16.00;14.32;;;;;;;11.44;65.25;101290.84;5074265;28;20020;-83
2020/12/19 00:47:30;;;;;;;17.38;15.57;;;;;;;11.42;65.06;101287.47;5069225;28;20032;-85
2020/12/19 00:49:58;;;;;;;19.50;17.58;;;;;;;11.32;65.44;101287.75;5056264;28;20020;-83
2020/12/19 00:52:23;;;;;;;17.20;15.43;;;;;;;11.45;65.02;101289.81;5066309;28;20033;-81
2020/12/19 00:54:49;;;;;;;17.80;15.15;;;;;;;11.39;65.33;101285.13;5053944;28;20493;-84
2020/12/19 00:57:15;;;;;;;19.65;17.38;;;;;;;11.38;65.25;101286.97;5071219;28;20144;-87
2020/12/19 00:59:40;;;;;;;23.55;21.38;;;;;;;11.28;65.58;101275.56;5069204;28;20062;-82
2020/12/19 01:02:06;;;;;;;21.67;18.23;;;;;;;11.48;64.87;101270.38;5077057;28;20437;-83
2020/12/19 01:04:31;;;;;;;19.40;16.90;;;;;;;11.29;65.45;101261.75;5054115;28;20119;-86
2020/12/19 01:06:57;;;;;;;23.38;18.05;;;;;;;11.32;65.58;101270.56;5072551;28;20031;-84
2020/12/19 01:09:22;;;;;;;17.85;15.95;;;;;;;11.28;65.35;101267.41;5066628;28;20032;-85
2020/12/19 01:11:48;;;;;;;19.08;17.08;;;;;;;11.44;65.09;101275.31;5048924;28;20058;-84
2020/12/19 01:14:13;;;;;;;21.70;19.33;;;;;;;11.09;66.02;101279.69;5067045;28;20510;-87
2020/12/19 01:16:38;;;;;;;20.77;16.85;;;;;;;11.20;65.53;101275.66;5072001;28;20050;-84
2020/12/19 01:19:04;;;;;;;20.92;17.17;;;;;;;11.29;65.23;101275.38;5073844;28;20028;-86
2020/12/19 01:21:29;;;;;;;22.02;19.80;;;;;;;11.35;64.95;101278.38;5068900;28;20375;-86
2020/12/19 01:23:56;;;;;;;17.23;14.98;;;;;;;11.33;65.29;101269.56;5052515;28;20499;-85
2020/12/19 01:26:22;;;;;;;21.73;18.73;;;;;;;11.28;65.33;101270.97;5068712;28;20032;-84
2020/12/19 01:28:48;;;;;;;24.15;21.67;;;;;;;11.20;65.42;101270.22;5071738;28;20073;-84
2020/12/19 01:31:28;;;;;;;19.50;17.50;;;;;;;11.18;65.45;101275.00;5066838;28;20557;-83
2020/12/19 01:33:53;;;;;;;25.58;20.38;;;;;;;11.34;64.88;101273.94;5076284;28;20761;-81
2020/12/19 01:36:23;;;;;;;23.50;19.40;;;;;;;11.06;65.73;101271.91;5034352;28;20569;-83
2020/12/19 01:38:50;;;;;;;20.17;18.02;;;;;;;11.20;65.08;101268.34;5080202;28;20177;-82
2020/12/19 01:41:16;;;;;;;25.60;18.15;;;;;;;11.09;65.34;101276.97;5053105;28;20455;-83
2020/12/19 01:43:42;;;;;;;20.88;18.10;;;;;;;11.19;65.08;101276.72;5052812;28;20028;-83
2020/12/19 01:46:08;;;;;;;24.02;19.52;;;;;;;11.07;65.19;101268.16;5050839;28;20031;-82
2020/12/19 01:48:33;;;;;;;23.58;17.42;;;;;;;11.19;64.87;101265.81;5070755;28;20036;-84
2020/12/19 01:50:59;;;;;;;23.70;17.65;;;;;;;11.09;65.45;101266.97;5055154;28;20375;-82
2020/12/19 01:53:24;;;;;;;25.48;20.70;;;;;;;11.17;64.80;101265.16;5051875;28;20040;-83
2020/12/19 01:55:52;;;;;;;24.13;20.80;;;;;;;11.13;64.78;101277.47;5054709;28;20052;-83
2020/12/19 01:58:18;;;;;;;25.35;21.88;;;;;;;11.16;64.68;101269.75;5069040;28;20024;-82
2020/12/19 02:00:43;;;;;;;24.00;20.58;;;;;;;11.04;65.03;101263.09;5070189;28;20577;-82
2020/12/19 02:03:09;;;;;;;27.10;24.15;;;;;;;10.96;65.23;101263.22;5067899;28;20044;-84
2020/12/19 02:05:41;;;;;;;30.55;27.35;;;;;;;11.04;65.06;101257.66;5078992;28;20066;-81
2020/12/19 02:08:07;;;;;;;26.75;24.15;;;;;;;11.07;64.82;101247.22;5065599;28;20064;-84
2020/12/19 02:10:34;;;;;;;24.52;19.70;;;;;;;10.87;65.26;101246.97;5075123;28;20032;-81
2020/12/19 02:13:04;;;;;;;25.40;22.48;;;;;;;10.87;65.20;101243.41;5067090;28;20158;-82
2020/12/19 02:15:43;;;;;;;26.08;23.33;;;;;;;11.01;64.79;101250.72;5058988;28;20085;-82
2020/12/19 02:18:09;;;;;;;20.45;18.17;;;;;;;10.72;65.69;101247.00;5053455;28;20124;-82
2020/12/19 02:20:35;;;;;;;26.33;19.65;;;;;;;10.82;65.47;101246.69;5067059;28;20143;-84
2020/12/19 02:23:02;;;;;;;26.65;20.58;;;;;;;10.85;65.44;101251.75;5074098;28;20120;-80
2020/12/19 02:25:36;;;;;;;25.73;20.25;;;;;;;10.67;65.73;101243.97;5067298;28;20052;-84
2020/12/19 02:28:04;;;;;;;24.20;20.58;;;;;;;10.73;65.66;101251.38;5070819;28;20437;-82
2020/12/19 02:30:29;;;;;;;23.77;18.55;;;;;;;10.73;65.63;101248.66;5074333;28;20478;-83
2020/12/19 02:32:55;;;;;;;25.48;22.42;;;;;;;10.73;65.67;101243.22;5041523;28;20036;-82
2020/12/19 02:35:20;;;;;;;22.52;18.50;;;;;;;10.90;64.84;101240.31;5073542;28;20035;-81
2020/12/19 02:37:46;;;;;;;26.20;20.40;;;;;;;10.83;65.19;101248.41;5038743;28;20487;-83
2020/12/19 02:40:11;;;;;;;21.42;19.20;;;;;;;10.89;64.90;101238.63;5070932;28;20517;-83
2020/12/19 02:42:37;;;;;;;23.08;18.30;;;;;;;10.65;65.57;101237.88;5067555;28;20048;-85
2020/12/19 02:45:02;;;;;;;22.15;17.02;;;;;;;10.58;65.69;101242.38;5058176;28;20099;-83
2020/12/19 02:47:28;;;;;;;21.23;16.20;;;;;;;10.69;65.47;101238.34;5055805;28;20037;-82
2020/12/19 02:49:53;;;;;;;20.88;18.17;;;;;;;10.88;64.89;101228.78;5057083;28;20154;-81
2020/12/19 02:52:19;;;;;;;20.05;17.83;;;;;;;10.81;64.86;101225.94;5054441;28;20071;-83
2020/12/19 02:54:44;;;;;;;22.92;20.58;;;;;;;10.82;64.89;101221.38;5079903;28;20043;-83
2020/12/19 02:57:09;;;;;;;22.65;18.65;;;;;;;10.60;65.42;101217.69;5042615;28;20039;-81
2020/12/19 02:59:35;;;;;;;23.88;18.35;;;;;;;10.66;65.17;101208.78;5056531;28;20032;-82
2020/12/19 03:02:00;;;;;;;21.58;16.13;;;;;;;10.63;65.33;101210.03;5039213;28;20090;-83
2020/12/19 03:04:26;;;;;;;23.08;17.30;;;;;;;10.77;64.77;101191.16;5053405;28;20039;-82
2020/12/19 03:06:51;;;;;;;20.17;16.55;;;;;;;10.78;64.75;101195.56;5070932;28;20033;-83
2020/12/19 03:09:18;;;;;;;22.08;17.70;;;;;;;10.76;64.80;101198.47;5076828;28;20028;-83
2020/12/19 03:11:44;;;;;;;24.30;17.92;;;;;;;10.69;64.67;101187.53;5056964;28;20036;-83
2020/12/19 03:14:09;;;;;;;23.05;19.15;;;;;;;10.56;65.27;101193.59;5071403;28;20526;-83
2020/12/19 03:16:34;;;;;;;22.70;17.45;;;;;;;10.61;65.03;101195.75;5073836;28;20547;-85
2020/12/19 03:19:00;;;;;;;23.23;19.30;;;;;;;10.51;65.21;101176.19;5032365;28;20045;-84
2020/12/19 03:21:25;;;;;;;21.15;18.63;;;;;;;10.60;64.99;101185.94;5074977;28;20081;-84
2020/12/19 03:23:51;;;;;;;24.55;18.27;;;;;;;10.66;64.82;101171.56;5074680;28;20043;-84
2020/12/19 03:26:16;;;;;;;24.30;19.92;;;;;;;10.41;65.54;101179.19;5070207;28;20055;-84
2020/12/19 03:28:41;;;;;;;25.55;18.63;;;;;;;10.34;66.06;101176.34;5058339;28;20039;-83
2020/12/19 03:31:07;;;;;;;25.27;20.45;;;;;;;10.44;65.56;101180.66;5050967;28;20052;-81
2020/12/19 03:33:32;;;;;;;24.27;20.35;;;;;;;10.49;65.40;101181.81;5052530;28;20048;-85
2020/12/19 03:35:58;;;;;;;23.17;20.67;;;;;;;10.42;65.60;101169.16;5046849;28;20111;-85
2020/12/19 03:38:23;;;;;;;28.45;21.30;;;;;;;10.51;65.30;101170.75;5070737;28;20095;-82
2020/12/19 03:40:49;;;;;;;22.40;16.63;;;;;;;10.49;65.30;101162.78;5069690;28;20682;-83
2020/12/19 03:43:14;;;;;;;25.08;21.35;;;;;;;10.40;65.51;101166.63;5070291;28;20044;-84
2020/12/19 03:45:39;;;;;;;22.60;19.23;;;;;;;10.26;66.19;101159.28;5055073;28;20028;-85
2020/12/19 03:48:05;;;;;;;25.75;20.25;;;;;;;10.33;66.09;101161.09;5037471;28;20046;-84
2020/12/19 03:50:30;;;;;;;25.38;20.20;;;;;;;10.41;65.76;101165.59;5072495;28;20461;-83
2020/12/19 03:52:55;;;;;;;23.83;17.65;;;;;;;10.39;65.98;101162.19;5052519;28;20031;-82
2020/12/19 03:55:21;;;;;;;24.25;18.30;;;;;;;10.21;66.02;101155.22;5068929;28;20502;-82
2020/12/19 03:57:46;;;;;;;25.63;19.80;;;;;;;10.35;65.83;101145.44;5077069;28;20119;-87
2020/12/19 04:00:12;;;;;;;26.02;20.23;;;;;;;10.36;65.72;101158.00;5069565;28;20040;-82
2020/12/19 04:02:38;;;;;;;22.92;19.52;;;;;;;10.30;66.27;101155.13;5072884;28;20054;-83
2020/12/19 04:05:09;;;;;;;23.80;20.75;;;;;;;10.31;66.05;101151.41;5071647;28;20040;-85
2020/12/19 04:07:34;;;;;;;25.25;21.25;;;;;;;10.35;66.08;101140.00;5072322;28;20032;-83
2020/12/19 04:09:59;;;;;;;26.23;21.48;;;;;;;10.25;66.48;101141.25;5051446;28;20066;-82
2020/12/19 04:12:25;;;;;;;25.20;18.65;;;;;;;10.19;66.62;101132.84;5070270;28;20052;-83
2020/12/19 04:14:50;;;;;;;25.42;22.63;;;;;;;10.29;66.28;101134.44;5067715;28;20082;-84
2020/12/19 04:17:16;;;;;;;25.75;20.45;;;;;;;10.34;66.17;101127.41;5071222;28;20028;-83
2020/12/19 04:19:42;;;;;;;26.20;20.02;;;;;;;10.24;66.31;101124.13;5072629;28;20044;-83
2020/12/19 04:22:08;;;;;;;25.23;18.95;;;;;;;10.32;65.93;101126.75;5071281;28;20039;-82
2020/12/19 04:24:33;;;;;;;27.08;21.77;;;;;;;10.22;66.30;101123.44;5068466;28;20028;-85
2020/12/19 04:27:00;;;;;;;25.10;20.60;;;;;;;10.37;65.94;101126.22;5052960;28;20059;-83
2020/12/19 04:29:26;;;;;;;25.52;22.13;;;;;;;10.41;65.67;101121.22;5074553;28;20479;-84
2020/12/19 04:31:52;;;;;;;23.92;19.15;;;;;;;10.57;64.94;101124.59;5071606;28;20135;-82
2020/12/19 04:34:17;;;;;;;26.80;23.52;;;;;;;10.55;64.91;101115.78;5056183;28;20127;-82
2020/12/19 04:36:43;;;;;;;30.27;24.70;;;;;;;10.50;65.48;101120.09;5068068;28;20500;-84
2020/12/19 04:39:08;;;;;;;25.20;22.08;;;;;;;10.50;65.23;101114.66;5028472;28;20036;-83
2020/12/19 04:41:34;;;;;;;22.90;20.50;;;;;;;10.63;64.79;101103.09;5052294;28;20067;-82
2020/12/19 04:44:02;;;;;;;18.65;16.08;;;;;;;10.45;65.43;101106.22;5067739;28;20037;-83
2020/12/19 04:46:29;;;;;;;27.67;22.88;;;;;;;10.52;65.30;101107.16;5068514;28;20114;-84
2020/12/19 04:48:57;;;;;;;25.15;20.05;;;;;;;10.63;64.67;101095.78;5070739;28;20037;-81
2020/12/19 04:51:23;;;;;;;23.67;18.63;;;;;;;10.58;64.96;101090.06;5070297;28;20502;-83
2020/12/19 04:53:48;;;;;;;25.42;22.25;;;;;;;10.43;65.50;101098.25;5072258;28;20090;-84
2020/12/19 04:56:15;;;;;;;25.55;21.27;;;;;;;10.48;65.24;101084.09;5048984;28;20043;-82
2020/12/19 04:58:41;;;;;;;23.60;21.10;;;;;;;10.64;64.98;101083.03;5065348;28;20570;-82
2020/12/19 05:01:06;;;;;;;22.90;19.55;;;;;;;10.55;65.13;101085.88;5069396;28;20082;-82
2020/12/19 05:03:32;;;;;;;25.90;22.30;;;;;;;10.64;64.82;101086.59;5068221;28;20032;-83
2020/12/19 05:05:58;;;;;;;25.95;23.15;;;;;;;10.77;64.67;101085.91;5074573;28;20462;-82
2020/12/19 05:08:24;;;;;;;24.42;17.17;;;;;;;10.76;64.59;101076.06;5055453;28;20086;-82
2020/12/19 05:10:49;;;;;;;27.73;24.25;;;;;;;10.71;65.15;101068.47;5071390;28;20044;-85
2020/12/19 05:13:15;;;;;;;25.63;19.83;;;;;;;10.66;65.14;101067.34;5058580;28;20031;-84
2020/12/19 05:15:40;;;;;;;23.75;18.98;;;;;;;10.78;65.23;101067.72;5075807;28;20043;-84
2020/12/19 05:18:05;;;;;;;26.42;23.63;;;;;;;10.94;64.71;101064.75;5067684;28;20032;-84
2020/12/19 05:20:31;;;;;;;22.88;18.48;;;;;;;10.99;64.63;101056.84;5065800;28;20032;-85
2020/12/19 05:22:57;;;;;;;22.70;18.15;;;;;;;10.91;64.60;101059.69;5053245;28;20029;-83
2020/12/19 05:25:26;;;;;;;21.58;19.05;;;;;;;10.88;64.94;101062.81;5071822;28;20036;-83
2020/12/19 05:27:51;;;;;;;24.08;20.63;;;;;;;11.04;64.27;101054.38;5072329;28;20063;-82
2020/12/19 05:30:19;;;;;;;24.17;19.85;;;;;;;10.95;64.91;101063.69;5069446;28;20420;-83
2020/12/19 05:32:52;;;;;;;23.42;20.83;;;;;;;11.09;64.34;101057.38;5073685;28;20035;-82
2020/12/19 05:35:22;;;;;;;27.85;19.55;;;;;;;11.01;64.45;101051.22;5068175;28;20039;-85
2020/12/19 05:38:06;;;;;;;26.25;23.65;;;;;;;10.91;64.93;101055.09;5060176;28;20115;-81
2020/12/19 05:40:33;;;;;;;21.63;17.23;;;;;;;11.11;64.54;101052.56;5067581;28;20056;-85
2020/12/19 05:43:00;;;;;;;24.33;18.30;;;;;;;10.89;64.99;101042.69;5069402;28;20028;-82
2020/12/19 05:45:27;;;;;;;21.05;18.40;;;;;;;10.81;65.12;101048.28;5068647;28;20121;-85
2020/12/19 05:47:53;;;;;;;20.88;16.63;;;;;;;10.90;65.10;101044.41;5070058;28;20028;-83
2020/12/19 05:50:20;;;;;;;22.55;15.90;;;;;;;10.75;65.71;101041.72;5071652;28;20591;-82
2020/12/19 05:52:45;;;;;;;22.63;20.20;;;;;;;10.87;65.44;101033.91;5046709;28;20120;-84
2020/12/19 05:55:13;;;;;;;19.88;16.48;;;;;;;10.95;64.97;101030.22;5071253;28;20399;-83
2020/12/19 05:57:39;;;;;;;21.13;17.83;;;;;;;10.95;64.92;101028.31;5073896;28;20189;-85
2020/12/19 06:00:08;;;;;;;25.90;19.17;;;;;;;11.02;64.74;101029.25;5077782;28;20043;-83
2020/12/19 06:02:37;;;;;;;21.10;17.33;;;;;;;11.10;64.58;101018.22;5073960;28;20109;-83
2020/12/19 06:05:06;;;;;;;24.50;20.73;;;;;;;11.21;64.37;101021.44;5079690;28;20695;-82
2020/12/19 06:07:39;;;;;;;24.23;18.38;;;;;;;11.09;64.26;101012.97;5076080;28;20035;-83
2020/12/19 06:10:10;;;;;;;23.65;17.65;;;;;;;11.20;64.09;101019.75;5068740;28;20095;-83
2020/12/19 06:12:50;;;;;;;19.42;16.25;;;;;;;11.09;64.16;101023.84;5072898;28;20131;-84
2020/12/19 06:15:32;;;;;;;22.27;19.50;;;;;;;11.23;63.91;101031.13;5079696;28;20037;-83
2020/12/19 06:18:39;;;;;;;27.27;23.85;;;;;;;11.36;63.57;101016.75;5072037;28;20024;-81
2020/12/19 06:21:08;;;;;;;20.17;17.42;;;;;;;11.30;63.92;101006.66;5069012;28;20044;-82
2020/12/19 06:23:35;;;;;;;18.67;15.35;;;;;;;11.43;63.30;101009.50;5074807;28;20020;-83
2020/12/19 06:26:01;;;;;;;19.27;15.98;;;;;;;11.35;63.63;101008.78;5073778;28;20390;-82
2020/12/19 06:28:41;;;;;;;19.58;17.48;;;;;;;11.48;63.39;101006.19;5073707;28;20031;-83
2020/12/19 06:31:18;;;;;;;21.05;18.90;;;;;;;11.43;63.47;101001.31;5066264;28;20032;-82
2020/12/19 06:33:49;;;;;;;18.45;14.05;;;;;;;11.59;63.10;101000.16;5058428;28;20023;-83
2020/12/19 06:36:28;;;;;;;21.85;17.77;;;;;;;11.67;63.06;101007.34;5073614;28;20071;-82
2020/12/19 06:38:56;;;;;;;17.73;14.32;;;;;;;11.59;62.98;101002.06;5072671;28;20033;-82
2020/12/19 06:41:48;;;;;;;20.00;17.88;;;;;;;11.42;63.63;101005.06;5066976;28;20495;-82
2020/12/19 06:44:25;;;;;;;21.58;16.75;;;;;;;11.48;63.50;101006.19;5072746;28;20035;-83
2020/12/19 06:46:51;;;;;;;20.88;16.35;;;;;;;11.56;63.26;101007.91;5078399;28;20621;-86
2020/12/19 06:49:37;;;;;;;18.48;14.50;;;;;;;11.65;62.66;100999.38;5075079;28;20491;-83
2020/12/19 06:52:13;;;;;;;19.85;14.82;;;;;;;11.43;63.50;101001.31;5080042;28;20151;-82
2020/12/19 06:54:45;;;;;;;19.55;15.60;;;;;;;11.53;63.34;101006.41;5056304;28;20059;-83
2020/12/19 06:57:31;;;;;;;23.42;17.67;;;;;;;11.63;63.05;100990.56;5073322;28;20129;-82
2020/12/19 07:00:16;;;;;;;19.67;15.38;;;;;;;11.76;62.54;101005.31;5073888;28;20040;-84
2020/12/19 07:02:51;;;;;;;17.02;13.50;;;;;;;11.57;63.22;101006.84;5066039;28;20472;-82
2020/12/19 07:05:28;;;;;;;16.25;12.80;;;;;;;11.57;63.09;101009.56;5072868;28;20545;-84
2020/12/19 07:08:19;;;;;;;17.88;14.55;;;;;;;11.49;63.70;100996.13;5073153;28;20032;-82
2020/12/19 07:10:45;;;;;;;20.15;14.52;;;;;;;11.47;63.47;100997.16;5068332;28;20031;-82
2020/12/19 07:13:11;;;;;;;17.27;13.48;;;;;;;11.46;63.52;101000.94;5044545;28;20036;-86
2020/12/19 07:15:47;;;;;;;21.38;16.15;;;;;;;11.59;63.58;101000.16;5068741;28;20064;-83
2020/12/19 07:18:28;;;;;;;24.85;17.63;;;;;;;11.58;63.69;101003.09;5053346;28;20566;-83
2020/12/19 07:20:57;;;;;;;19.17;15.27;;;;;;;11.40;64.57;100996.28;5069601;28;20032;-83
2020/12/19 07:23:23;;;;;;;24.02;21.63;;;;;;;11.50;64.16;100995.09;5077320;28;20124;-82
2020/12/19 07:25:48;;;;;;;22.98;17.98;;;;;;;11.57;64.25;101001.41;5055220;28;20024;-84
2020/12/19 07:28:15;;;;;;;23.15;18.73;;;;;;;11.49;64.59;100991.50;5073429;28;20028;-84
2020/12/19 07:30:40;;;;;;;22.33;15.85;;;;;;;11.64;64.18;100985.94;5052240;28;20020;-81
2020/12/19 07:33:07;;;;;;;20.48;16.52;;;;;;;11.52;64.55;100991.09;5064468;28;20524;-84
2020/12/19 07:35:32;;;;;;;17.73;14.65;;;;;;;11.49;64.91;100991.50;5054034;28;20032;-82
2020/12/19 07:37:58;;;;;;;19.25;15.35;;;;;;;11.59;64.96;100997.44;5036290;28;20052;-85
2020/12/19 07:40:23;;;;;;;22.42;15.63;;;;;;;11.56;64.54;101003.28;5077270;28;20439;-86
2020/12/19 07:43:01;;;;;;;21.40;17.92;;;;;;;11.53;64.59;101005.59;5071219;28;20094;-87
2020/12/19 07:45:27;;;;;;;23.98;20.35;;;;;;;11.59;64.53;101008.34;5072362;28;20029;-84
2020/12/19 07:47:54;;;;;;;23.10;16.83;;;;;;;11.59;64.38;101004.78;5068370;28;20040;-83
2020/12/19 07:50:26;;;;;;;24.00;19.15;;;;;;;11.40;65.39;101004.44;5071101;28;20115;-84
2020/12/19 07:53:08;;;;;;;23.08;19.30;;;;;;;11.57;64.58;101006.84;5057030;28;20044;-83
2020/12/19 07:55:34;;;;;;;24.02;21.50;;;;;;;11.72;64.43;100998.56;5056329;28;20121;-85
2020/12/19 07:58:02;;;;;;;26.10;23.02;;;;;;;11.65;64.45;101004.81;5070251;28;20597;-83
2020/12/19 08:00:28;;;;;;;23.00;18.80;;;;;;;11.42;65.32;101002.34;5056393;28;20032;-84
2020/12/19 08:02:54;;;;;;;28.38;21.38;;;;;;;11.56;64.81;101000.56;5071382;28;20461;-83
2020/12/19 08:05:20;;;;;;;22.27;17.40;;;;;;;11.72;64.81;101004.03;5061189;28;20039;-82
2020/12/19 08:07:50;;;;;;;25.92;19.88;;;;;;;11.73;64.59;101006.53;5039654;28;20483;-83
2020/12/19 08:10:15;;;;;;;24.83;18.40;;;;;;;11.75;64.40;100992.72;5072701;28;20576;-83
2020/12/19 08:12:41;;;;;;;24.83;22.00;;;;;;;11.95;64.45;100992.88;5056087;28;20028;-83
2020/12/19 08:15:10;;;;;;;23.48;19.45;;;;;;;12.03;64.48;100995.41;5071655;28;20032;-83
2020/12/19 08:17:53;;;;;;;22.85;18.27;;;;;;;12.04;64.34;100991.66;5066301;28;20025;-81
2020/12/19 08:20:39;;;;;;;19.70;16.25;;;;;;;12.08;64.29;100989.34;5068208;28;20063;-82
2020/12/19 08:23:08;;;;;;;23.33;18.42;;;;;;;12.20;64.24;100986.91;5067288;28;20113;-81
2020/12/19 08:25:35;;;;;;;21.60;17.67;;;;;;;12.08;64.50;100984.75;5051629;28;20093;-83
2020/12/19 08:28:00;;;;;;;24.33;18.92;;;;;;;12.32;63.91;100983.38;5075350;28;20111;-84
2020/12/19 08:30:29;;;;;;;25.15;19.17;;;;;;;12.18;64.29;100982.47;5052527;28;20051;-85
2020/12/19 08:33:00;;;;;;;22.02;17.42;;;;;;;12.29;63.80;100978.31;5067915;28;20452;-84
2020/12/19 08:35:32;;;;;;;23.25;16.63;;;;;;;12.29;64.22;100974.75;5067767;28;20039;-83
2020/12/19 08:38:24;;;;;;;25.58;18.00;;;;;;;12.38;63.59;100979.00;5060648;28;20478;-84
2020/12/19 08:40:51;;;;;;;23.92;17.55;;;;;;;12.31;63.73;100980.84;5050815;28;20040;-85
2020/12/19 08:43:18;;;;;;;22.40;17.52;;;;;;;12.24;64.30;100974.53;5064956;28;20037;-85
2020/12/19 08:45:49;;;;;;;22.70;16.75;;;;;;;12.23;64.36;100970.97;5065420;28;20055;-86
2020/12/19 08:48:21;;;;;;;22.00;17.90;;;;;;;12.29;64.57;100972.03;5076990;28;20043;-83
2020/12/19 08:50:48;;;;;;;21.95;18.25;;;;;;;12.41;64.21;100964.94;5072436;28;20528;-82
2020/12/19 08:53:20;;;;;;;22.67;18.27;;;;;;;12.64;63.75;100963.75;5072468;28;20024;-82
2020/12/19 08:55:47;;;;;;;26.98;24.17;;;;;;;12.71;63.81;100965.44;5071312;28;20032;-84
2020/12/19 08:58:29;;;;;;;24.95;18.73;;;;;;;12.76;63.65;100956.63;5069439;28;20472;-85
2020/12/19 09:01:00;;;;;;;24.20;18.65;;;;;;;12.72;63.45;100950.72;5071812;28;20041;-88
2020/12/19 09:03:31;;;;;;;23.15;18.23;;;;;;;13.02;63.11;100958.53;5067096;28;20043;-86
2020/12/19 09:05:57;;;;;;;;;;;;;;;12.95;63.37;100951.41;5050133;28;20040;-84
2020/12/19 09:08:31;;;;;;;23.52;17.90;;;;;;;12.88;63.21;100952.22;5065932;28;20023;-84
2020/12/19 09:10:56;;;;;;;21.88;17.27;;;;;;;13.37;62.22;100938.38;5069244;28;20490;-85
2020/12/19 09:13:22;;;;;;;23.10;18.48;;;;;;;13.20;62.75;100959.78;5049632;28;20040;-86
2020/12/19 09:15:50;;;;;;;20.80;15.93;;;;;;;12.95;63.00;100957.69;5049252;28;20028;-84
2020/12/19 09:18:21;;;;;;;19.60;14.55;;;;;;;13.20;62.59;100960.63;5047274;28;20044;-86
2020/12/19 09:20:54;;;;;;;19.65;14.35;;;;;;;13.35;62.54;100962.34;5066018;28;20021;-85
2020/12/19 09:23:20;;;;;;;21.02;15.02;;;;;;;13.37;62.41;100969.25;5064069;28;20372;-87
2020/12/19 09:25:46;;;;;;;22.95;14.63;;;;;;;13.25;62.43;100971.75;5076784;28;20492;-85
2020/12/19 09:28:12;;;;;;;20.25;16.42;;;;;;;13.24;62.53;100970.06;5067394;28;20043;-86
2020/12/19 09:30:37;;;;;;;19.80;13.98;;;;;;;13.42;61.99;100965.88;5065673;28;20028;-85
2020/12/19 09:33:03;;;;;;;20.33;14.77;;;;;;;13.34;62.36;100974.31;5048471;28;20028;-85
2020/12/19 09:35:29;;;;;;;22.65;15.93;;;;;;;13.55;61.76;100965.03;5046811;28;20039;-84
2020/12/19 09:37:55;;;;;;;18.80;14.90;;;;;;;13.38;62.04;100970.09;5068587;28;20123;-85
2020/12/19 09:40:21;;;;;;;18.42;13.48;;;;;;;13.11;62.82;100961.88;5047755;28;20048;-86
2020/12/19 09:42:46;;;;;;;18.05;13.35;;;;;;;13.15;62.94;100967.78;5065872;28;20036;-86
2020/12/19 09:45:12;;;;;;;17.98;13.88;;;;;;;13.35;62.45;100963.16;5065971;28;20037;-83
2020/12/19 09:47:41;;;;;;;17.33;12.90;;;;;;;13.34;62.54;100968.84;5048473;28;20068;-83
2020/12/19 09:50:10;;;;;;;20.10;14.02;;;;;;;13.28;62.60;100966.91;5066478;28;20059;-84
2020/12/19 09:52:36;;;;;;;22.33;14.57;;;;;;;13.43;62.05;100970.28;5065417;28;20415;-84
2020/12/19 09:55:04;;;;;;;22.17;15.85;;;;;;;13.56;61.42;100959.34;5045912;28;20028;-86
2020/12/19 09:57:30;;;;;;;20.95;15.05;;;;;;;13.41;62.18;100966.94;5071608;28;20056;-83
2020/12/19 09:59:55;;;;;;;17.80;13.90;;;;;;;13.34;62.29;100969.66;5069123;28;20029;-82
2020/12/19 10:02:20;;;;;;;20.60;15.30;;;;;;;13.31;62.55;100963.75;5067742;28;20044;-85
2020/12/19 10:04:46;;;;;;;20.83;13.65;;;;;;;13.42;62.24;100965.88;5055915;28;20055;-83
2020/12/19 10:07:11;;;;;;;21.05;16.83;;;;;;;13.36;62.60;100969.47;5060253;28;20037;-85
2020/12/19 10:09:37;;;;;;;16.45;14.30;;;;;;;13.43;62.53;100964.84;5060373;28;20094;-84
2020/12/19 10:12:02;;;;;;;18.45;12.93;;;;;;;13.52;62.34;100957.25;5063801;28;20041;-83
2020/12/19 10:14:27;;;;;;;19.52;14.77;;;;;;;13.51;62.14;100958.31;5062028;28;20398;-83
2020/12/19 10:16:54;;;;;;;20.27;15.35;;;;;;;13.38;62.69;100959.19;5063159;28;20028;-86
2020/12/19 10:19:23;;;;;;;27.05;15.55;;;;;;;13.56;61.94;100956.63;5060490;28;20132;-82
2020/12/19 10:21:48;;;;;;;20.83;16.48;;;;;;;13.83;61.30;100951.06;5055417;28;20032;-85
2020/12/19 10:24:16;;;;;;;19.30;15.60;;;;;;;13.88;61.19;100959.47;5042187;28;20043;-84
2020/12/19 10:26:46;;;;;;;21.02;17.67;;;;;;;13.84;61.57;100940.97;5047757;28;20045;-82
2020/12/19 10:29:11;;;;;;;19.73;16.58;;;;;;;13.80;61.50;100948.78;5044670;28;20072;-82
2020/12/19 10:31:36;;;;;;;21.95;15.95;;;;;;;13.56;61.91;100953.03;5048257;28;20044;-83
2020/12/19 10:34:02;;;;;;;21.08;15.20;;;;;;;13.90;61.10;100951.91;5044877;28;20770;-82
2020/12/19 10:36:27;;;;;;;16.80;14.27;;;;;;;13.74;61.48;100941.44;5031268;28;20029;-87
2020/12/19 10:38:53;;;;;;;17.08;13.15;;;;;;;13.76;61.46;100940.19;5069675;28;20058;-82
2020/12/19 10:41:19;;;;;;;17.15;14.43;;;;;;;13.75;61.77;100929.47;5057764;28;21577;-84
2020/12/19 10:43:45;;;;;;;18.13;14.10;;;;;;;14.12;60.57;100932.47;5021589;28;20041;-83
2020/12/19 10:46:10;;;;;;;22.30;14.98;;;;;;;14.18;60.40;100925.25;5046458;28;20086;-81
2020/12/19 10:48:35;;;;;;;18.10;15.40;;;;;;;14.43;60.09;100939.03;5067738;28;20021;-80
2020/12/19 10:51:01;;;;;;;17.73;15.88;;;;;;;14.39;60.09;100932.31;5048170;28;20046;-85
2020/12/19 10:53:27;;;;;;;20.55;17.67;;;;;;;14.56;59.61;100930.72;5064057;28;20652;-86
2020/12/19 10:55:52;;;;;;;19.45;16.20;;;;;;;14.37;60.11;100928.97;5066399;28;20033;-82
2020/12/19 10:58:18;;;;;;;19.10;15.15;;;;;;;14.43;59.93;100930.81;5065468;28;20047;-85
2020/12/19 11:00:44;;;;;;;21.10;17.25;;;;;;;14.73;59.61;100935.69;5046663;28;20608;-85
2020/12/19 11:03:09;;;;;;;18.08;14.38;;;;;;;14.69;59.49;100932.56;5044478;28;20025;-84
2020/12/19 11:05:39;;;;;;;18.08;14.85;;;;;;;14.59;59.76;100930.28;5049564;28;20072;-83
2020/12/19 11:08:05;;;;;;;15.48;12.52;;;;;;;14.73;59.39;100935.69;5048418;28;20094;-84
2020/12/19 11:10:31;;;;;;;18.63;13.27;;;;;;;14.49;59.85;100938.97;5049286;28;20505;-83
2020/12/19 11:12:57;;;;;;;15.32;13.48;;;;;;;14.74;59.34;100945.59;5048594;28;20036;-86